Gulkana, Gulkana Airport (PAGK)

NameGulkana Airport
CityGulkana
CountryUnited States
ICAOPAGK
IATAGKN
Altitude483 m
CoordinatesGoogle Map
Live Air TrafficLiveATC.net
METARPAGK 170953Z AUTO 06004KT 10SM CLR 07/05 A2957 RMK AO2 SLP015 T00720050 TSNO
2019-07-17 09:53:00 Wind: Northeast (60°) 2.06 m/s - Visibility: 16093.4 m - Temperature: 7 °C - Dew point: 5 °C - Humidity: 87.2% - Pressure: 1001.36 hPa
Statistics

The table below shows the detailed information of all flights to/from Gulkana, Gulkana Airport (PAGK).